createdAt,value
2022-09-14T00:01:32.226Z,7.10
2022-09-14T00:04:02.140Z,7.80
2022-09-14T00:06:31.471Z,7.00
2022-09-14T00:09:01.297Z,8.10
2022-09-14T00:11:32.445Z,8.97
2022-09-14T00:14:03.960Z,9.20
2022-09-14T00:16:34.117Z,9.67
2022-09-14T00:19:06.227Z,9.93
2022-09-14T00:21:35.090Z,10.73
2022-09-14T00:24:03.799Z,11.33
2022-09-14T00:26:33.156Z,10.40
2022-09-14T00:29:04.589Z,11.00
2022-09-14T00:31:33.715Z,10.70
2022-09-14T00:34:05.120Z,10.70
2022-09-14T00:36:50.154Z,9.93
2022-09-14T00:39:20.067Z,8.90
2022-09-14T00:41:50.727Z,8.90
2022-09-14T00:44:59.547Z,9.20
2022-09-14T00:47:29.218Z,8.43
2022-09-14T00:49:57.476Z,8.60
2022-09-14T00:52:28.134Z,9.53
2022-09-14T00:54:59.250Z,9.83
2022-09-14T00:57:32.372Z,9.73
2022-09-14T01:00:01.227Z,10.17
2022-09-14T01:02:29.765Z,10.50
2022-09-14T01:04:58.264Z,9.70
2022-09-14T01:07:38.511Z,10.60
2022-09-14T01:10:19.776Z,10.63
2022-09-14T01:13:03.209Z,10.33
2022-09-14T01:15:40.750Z,11.77
2022-09-14T01:18:16.338Z,12.03
2022-09-14T01:20:51.272Z,10.83
2022-09-14T01:23:26.407Z,12.20
2022-09-14T01:26:21.582Z,11.33
2022-09-14T01:28:54.258Z,12.20
2022-09-14T01:31:30.146Z,12.40
2022-09-14T01:34:09.827Z,12.17
2022-09-14T01:36:40.870Z,13.60
2022-09-14T01:39:10.134Z,12.90
2022-09-14T01:41:40.721Z,12.87
2022-09-14T01:44:15.836Z,13.23
2022-09-14T01:46:48.010Z,13.57
2022-09-14T01:49:19.573Z,13.57
2022-09-14T01:51:49.986Z,12.50
2022-09-14T01:54:24.669Z,12.40
2022-09-14T01:56:56.861Z,14.13
2022-09-14T01:59:29.380Z,14.57
2022-09-14T02:02:05.152Z,13.17
2022-09-14T02:04:40.117Z,13.60
2022-09-14T02:07:08.366Z,12.67
2022-09-14T02:09:36.443Z,13.23
2022-09-14T02:12:04.643Z,12.67
2022-09-14T02:14:34.072Z,13.10
2022-09-14T02:17:02.149Z,12.90
2022-09-14T02:19:37.664Z,12.80
2022-09-14T02:22:05.768Z,12.83
2022-09-14T02:24:34.153Z,12.50
2022-09-14T02:27:03.438Z,13.37
2022-09-14T02:29:33.380Z,12.13
2022-09-14T02:32:16.143Z,13.17
2022-09-14T02:34:53.320Z,14.23
2022-09-14T02:37:26.136Z,11.97
2022-09-14T02:40:02.657Z,11.83
2022-09-14T02:42:37.757Z,13.33
2022-09-14T02:45:15.670Z,13.30
2022-09-14T02:47:55.345Z,13.33
2022-09-14T02:50:29.671Z,13.73
2022-09-14T02:53:02.969Z,13.30
2022-09-14T02:55:36.604Z,14.70
2022-09-14T02:58:07.317Z,13.60
2022-09-14T03:00:38.481Z,13.60
2022-09-14T03:03:07.112Z,14.33
2022-09-14T03:05:35.443Z,12.80
2022-09-14T03:08:04.347Z,12.50
2022-09-14T03:10:33.388Z,12.97
2022-09-14T03:13:01.609Z,13.10
2022-09-14T03:15:30.128Z,12.70
2022-09-14T03:17:59.540Z,10.90
2022-09-14T03:20:29.955Z,12.30
2022-09-14T03:22:59.897Z,12.87
2022-09-14T03:25:28.965Z,13.10
2022-09-14T03:28:01.107Z,11.73
2022-09-14T03:30:29.237Z,11.90
2022-09-14T03:32:58.704Z,11.80
2022-09-14T03:35:30.643Z,12.20
2022-09-14T03:37:59.599Z,12.30
2022-09-14T03:40:28.352Z,11.63
2022-09-14T03:42:56.480Z,12.83
2022-09-14T03:45:24.653Z,13.73
2022-09-14T03:47:52.658Z,12.77
2022-09-14T03:50:21.147Z,12.80
2022-09-14T03:52:50.677Z,13.70
2022-09-14T03:55:19.267Z,12.00
2022-09-14T03:57:47.391Z,13.73
2022-09-14T04:00:15.994Z,13.03
2022-09-14T04:02:45.168Z,12.43
2022-09-14T04:05:13.228Z,11.40
2022-09-14T04:07:41.239Z,12.73
2022-09-14T04:10:11.311Z,13.07
2022-09-14T04:12:40.073Z,13.30
2022-09-14T04:15:09.714Z,12.80
2022-09-14T04:17:37.727Z,12.50
2022-09-14T04:20:06.333Z,12.43
2022-09-14T04:22:35.327Z,10.90
2022-09-14T04:25:03.343Z,12.13
2022-09-14T04:27:32.801Z,11.70
2022-09-14T04:30:00.757Z,11.43
2022-09-14T04:32:33.503Z,11.07
2022-09-14T04:35:02.471Z,10.80
2022-09-14T04:37:32.828Z,10.77
2022-09-14T04:40:01.109Z,9.70
2022-09-14T04:42:32.105Z,10.60
2022-09-14T04:45:00.098Z,9.10
2022-09-14T04:47:30.775Z,9.43
2022-09-14T04:49:58.752Z,9.60
2022-09-14T04:52:26.743Z,8.60
2022-09-14T04:54:54.749Z,8.57
2022-09-14T04:57:22.773Z,8.27
2022-09-14T04:59:52.174Z,8.73
2022-09-14T05:02:20.281Z,7.57
2022-09-14T05:04:48.350Z,7.40
2022-09-14T05:07:16.357Z,6.87
2022-09-14T05:09:44.329Z,6.90
2022-09-14T05:12:12.329Z,6.37
2022-09-14T05:14:40.363Z,7.00
2022-09-14T05:17:10.495Z,5.90
2022-09-14T05:19:38.477Z,5.53
2022-09-14T05:22:06.490Z,5.90
2022-09-14T05:24:34.526Z,6.03
2022-09-14T05:27:02.572Z,6.23
2022-09-14T05:29:31.966Z,5.80
2022-09-14T05:32:00.102Z,6.13
2022-09-14T05:34:29.442Z,5.60
2022-09-14T05:36:57.423Z,5.50
2022-09-14T05:39:25.970Z,5.30
2022-09-14T05:41:54.103Z,5.50
2022-09-14T05:44:22.130Z,5.10
2022-09-14T05:46:50.203Z,5.23
2022-09-14T05:49:18.273Z,5.03
2022-09-14T05:51:47.919Z,5.20
2022-09-14T05:54:15.931Z,5.70
2022-09-14T05:56:44.019Z,5.57
2022-09-14T05:59:12.107Z,5.70
2022-09-14T06:01:40.353Z,5.63
2022-09-14T06:04:08.720Z,5.23
2022-09-14T06:06:36.708Z,4.93
2022-09-14T06:09:06.254Z,5.70
2022-09-14T06:11:37.254Z,5.20
2022-09-14T06:14:07.420Z,5.43
2022-09-14T06:16:35.967Z,5.43
2022-09-14T06:19:04.071Z,4.80
2022-09-14T06:21:33.992Z,5.00
2022-09-14T06:24:02.136Z,4.97
2022-09-14T06:26:31.590Z,5.00
2022-09-14T06:28:59.655Z,4.80
2022-09-14T06:31:27.724Z,5.50
2022-09-14T06:33:55.869Z,5.07
2022-09-14T06:36:26.255Z,5.80
2022-09-14T06:38:54.925Z,5.23
2022-09-14T06:41:26.570Z,5.23
2022-09-14T06:43:57.229Z,5.60
2022-09-14T06:46:26.796Z,5.00
2022-09-14T06:48:57.885Z,5.30
2022-09-14T06:51:27.954Z,5.00
2022-09-14T06:53:59.443Z,6.40
2022-09-14T06:56:28.179Z,6.00
2022-09-14T06:58:58.943Z,6.10
2022-09-14T07:01:27.951Z,4.87
2022-09-14T07:03:55.954Z,4.97
2022-09-14T07:06:25.590Z,5.57
2022-09-14T07:08:54.553Z,5.60
2022-09-14T07:11:25.751Z,5.77
2022-09-14T07:13:55.683Z,6.10
2022-09-14T07:16:25.254Z,5.27
2022-09-14T07:18:54.549Z,5.10
2022-09-14T07:21:23.217Z,4.93
2022-09-14T07:23:51.904Z,5.10
2022-09-14T07:26:21.734Z,4.80
2022-09-14T07:28:52.418Z,5.50
2022-09-14T07:31:22.206Z,4.80
2022-09-14T07:33:54.261Z,5.10
2022-09-14T07:36:23.369Z,5.23
2022-09-14T07:38:52.842Z,5.07
2022-09-14T07:41:21.961Z,4.73
2022-09-14T07:43:51.070Z,5.00
2022-09-14T07:46:19.978Z,4.40
2022-09-14T07:48:49.086Z,4.33
2022-09-14T07:51:18.891Z,3.60
2022-09-14T07:53:46.989Z,3.40
2022-09-14T07:56:16.749Z,3.60
2022-09-14T07:58:45.521Z,2.77
2022-09-14T08:01:18.027Z,2.83
2022-09-14T08:03:48.934Z,3.10
2022-09-14T08:06:21.647Z,3.10
2022-09-14T08:08:54.642Z,4.30
2022-09-14T08:11:24.811Z,4.07
2022-09-14T08:13:54.398Z,4.70
2022-09-14T08:16:23.440Z,5.17
2022-09-14T08:18:55.461Z,5.97
2022-09-14T08:21:25.498Z,5.77
2022-09-14T08:23:54.029Z,5.67
2022-09-14T08:26:24.206Z,6.13
2022-09-14T08:28:54.432Z,6.77
2022-09-14T08:31:24.364Z,6.70
2022-09-14T08:33:54.401Z,7.57
2022-09-14T08:36:25.489Z,7.80
2022-09-14T08:38:53.590Z,9.17
2022-09-14T08:41:29.744Z,8.93
2022-09-14T08:44:01.714Z,10.43
2022-09-14T08:46:35.316Z,10.77
2022-09-14T08:49:10.511Z,11.30
2022-09-14T08:51:40.027Z,12.27
2022-09-14T08:54:11.130Z,12.57
2022-09-14T08:56:44.696Z,12.30
2022-09-14T08:59:30.931Z,11.27
2022-09-14T09:02:18.159Z,11.63
2022-09-14T09:04:54.506Z,13.47
2022-09-14T09:07:33.030Z,12.83
2022-09-14T09:10:01.413Z,13.57
2022-09-14T09:12:37.617Z,13.73
2022-09-14T09:15:16.151Z,13.60
2022-09-14T09:17:48.027Z,14.83
2022-09-14T09:20:22.807Z,14.00
2022-09-14T09:23:08.888Z,14.20
2022-09-14T09:25:47.966Z,13.43
2022-09-14T09:28:17.749Z,12.10
2022-09-14T09:30:47.024Z,12.63
2022-09-14T09:33:20.994Z,12.20
2022-09-14T09:35:49.886Z,11.57
2022-09-14T09:38:24.727Z,12.07
2022-09-14T09:40:56.138Z,12.93
2022-09-14T09:43:38.888Z,12.50
2022-09-14T09:46:13.499Z,12.80
2022-09-14T09:48:46.060Z,12.67
2022-09-14T09:51:18.884Z,13.67
2022-09-14T09:53:56.837Z,12.97
2022-09-14T09:56:28.594Z,14.10
2022-09-14T09:58:57.486Z,12.37
2022-09-14T10:01:29.941Z,11.10
2022-09-14T10:04:18.537Z,11.40
2022-09-14T10:06:48.608Z,10.80
2022-09-14T10:09:20.294Z,11.07
2022-09-14T10:11:58.205Z,11.70
2022-09-14T10:14:33.316Z,10.50
2022-09-14T10:17:18.896Z,11.13
2022-09-14T10:19:49.580Z,10.87
2022-09-14T10:22:26.791Z,11.60
2022-09-14T10:24:59.652Z,11.10
2022-09-14T10:27:40.739Z,11.40
2022-09-14T10:30:15.411Z,10.83
2022-09-14T10:32:47.131Z,11.00
2022-09-14T10:35:17.359Z,11.60
2022-09-14T10:38:02.538Z,12.13
2022-09-14T10:40:38.600Z,11.80
2022-09-14T10:43:15.642Z,11.60
2022-09-14T10:45:50.499Z,10.80
2022-09-14T10:48:30.190Z,12.80
2022-09-14T10:51:05.370Z,11.67
2022-09-14T10:53:50.132Z,10.60
2022-09-14T10:56:23.769Z,9.83
2022-09-14T10:59:05.886Z,10.67
2022-09-14T11:01:51.539Z,10.20
2022-09-14T11:04:32.381Z,9.87
2022-09-14T11:07:05.479Z,10.90
2022-09-14T11:09:42.394Z,11.57
2022-09-14T11:12:18.321Z,11.77
2022-09-14T11:14:57.768Z,11.83
2022-09-14T11:17:50.245Z,11.40
2022-09-14T11:20:26.661Z,11.00
2022-09-14T11:23:08.630Z,11.10
2022-09-14T11:25:45.528Z,11.30
2022-09-14T11:28:20.015Z,11.60
2022-09-14T11:30:54.366Z,11.90
2022-09-14T11:33:31.293Z,10.97
2022-09-14T11:36:04.917Z,10.63
2022-09-14T11:38:37.361Z,12.60
2022-09-14T11:41:24.042Z,11.60
2022-09-14T11:43:57.752Z,13.27
2022-09-14T11:46:31.571Z,12.70
2022-09-14T11:49:07.135Z,12.00
2022-09-14T11:51:41.766Z,12.43
2022-09-14T11:54:16.625Z,11.90
2022-09-14T11:56:48.835Z,11.77
2022-09-14T11:59:50.362Z,11.20
2022-09-14T12:03:12.999Z,12.13
2022-09-14T12:05:43.415Z,12.13
2022-09-14T12:08:37.988Z,11.40
2022-09-14T12:11:26.242Z,11.40
2022-09-14T12:14:42.548Z,11.30
2022-09-14T12:17:40.742Z,11.20
2022-09-14T12:20:37.706Z,12.60
2022-09-14T12:23:28.242Z,11.50
2022-09-14T12:26:02.351Z,11.87
2022-09-14T12:28:40.975Z,11.70
2022-09-14T12:31:29.681Z,11.77
2022-09-14T12:34:27.117Z,12.00
2022-09-14T12:37:06.533Z,11.70
2022-09-14T12:39:37.973Z,12.80
2022-09-14T12:42:29.859Z,13.20
2022-09-14T12:44:57.910Z,13.47
2022-09-14T12:47:58.957Z,11.90
2022-09-14T12:50:33.332Z,13.47
2022-09-14T12:53:23.885Z,11.60
2022-09-14T12:56:02.973Z,12.33
2022-09-14T12:58:59.314Z,11.83
2022-09-14T13:01:39.707Z,11.50
2022-09-14T13:04:15.434Z,11.70
2022-09-14T13:06:47.356Z,12.03
2022-09-14T13:09:21.122Z,11.60
2022-09-14T13:11:54.516Z,12.73
2022-09-14T13:14:26.282Z,11.53
2022-09-14T13:16:57.241Z,12.83
2022-09-14T13:19:27.306Z,13.63
2022-09-14T13:21:58.625Z,15.57
2022-09-14T13:24:31.227Z,16.77
2022-09-14T13:27:01.971Z,17.07
2022-09-14T13:29:31.312Z,17.83
2022-09-14T13:32:03.760Z,16.30
2022-09-14T13:34:35.027Z,17.67
2022-09-14T13:37:06.131Z,17.80
2022-09-14T13:39:37.037Z,19.47
2022-09-14T13:42:06.414Z,18.60
2022-09-14T13:44:35.771Z,19.57
2022-09-14T13:47:06.055Z,17.00
2022-09-14T13:49:36.639Z,19.40
2022-09-14T13:52:50.040Z,17.37
2022-09-14T13:55:25.450Z,17.60
2022-09-14T13:58:20.958Z,18.77
2022-09-14T14:00:59.190Z,18.43
2022-09-14T14:03:39.304Z,18.00
2022-09-14T14:06:25.114Z,20.40
2022-09-14T14:09:00.589Z,21.70
2022-09-14T14:11:36.057Z,20.20
2022-09-14T14:14:24.057Z,20.30
2022-09-14T14:17:32.818Z,20.40
2022-09-14T14:20:21.824Z,21.73
2022-09-14T14:22:58.178Z,22.30
2022-09-14T14:25:33.535Z,23.00
2022-09-14T14:28:03.289Z,23.37
2022-09-14T14:30:32.442Z,22.67
2022-09-14T14:33:01.391Z,22.57
2022-09-14T14:35:31.734Z,22.30
2022-09-14T14:38:00.096Z,22.53
2022-09-14T14:40:30.021Z,21.83
2022-09-14T14:42:59.462Z,22.63
2022-09-14T14:45:28.707Z,21.70
2022-09-14T14:47:57.412Z,21.97
2022-09-14T14:50:28.868Z,22.47
2022-09-14T14:53:00.515Z,22.77
2022-09-14T14:55:31.831Z,21.17
2022-09-14T14:58:02.566Z,21.20
2022-09-14T15:00:33.433Z,22.50
2022-09-14T15:03:01.544Z,22.27
2022-09-14T15:05:29.781Z,22.67
2022-09-14T15:07:57.888Z,22.70
2022-09-14T15:10:27.826Z,21.40
2022-09-14T15:12:57.188Z,15.47
2022-09-14T15:15:27.361Z,8.00
2022-09-14T15:17:55.512Z,5.90
2022-09-14T15:20:24.238Z,4.50
2022-09-14T15:22:52.288Z,4.40
2022-09-14T15:25:22.051Z,4.00
2022-09-14T15:27:50.423Z,4.07
2022-09-14T15:30:19.975Z,3.53
2022-09-14T15:32:48.201Z,2.63
2022-09-14T15:35:16.576Z,2.50
2022-09-14T15:37:44.728Z,2.33
2022-09-14T15:40:13.055Z,2.30
2022-09-14T15:42:41.139Z,2.27
2022-09-14T15:45:09.990Z,2.07
2022-09-14T15:47:42.418Z,2.00
2022-09-14T15:50:11.713Z,1.80
2022-09-14T15:52:40.588Z,1.87
2022-09-14T15:55:10.511Z,1.87
2022-09-14T15:57:39.251Z,1.93
2022-09-14T16:00:10.229Z,2.10
2022-09-14T16:02:39.586Z,2.20
2022-09-14T16:05:08.535Z,2.27
2022-09-14T16:07:36.576Z,1.80
2022-09-14T16:10:05.067Z,1.90
2022-09-14T16:12:33.274Z,1.87
2022-09-14T16:15:01.244Z,2.00
2022-09-14T16:17:29.249Z,1.80
2022-09-14T16:19:58.621Z,2.10
2022-09-14T16:22:27.290Z,1.90
2022-09-14T16:24:55.274Z,2.37
2022-09-14T16:27:24.069Z,2.50
2022-09-14T16:29:52.074Z,2.10
2022-09-14T16:32:20.119Z,3.20
2022-09-14T16:34:50.753Z,3.10
2022-09-14T16:37:20.127Z,3.23
2022-09-14T16:39:49.197Z,2.73
2022-09-14T16:42:17.284Z,2.60
2022-09-14T16:44:45.278Z,2.70
2022-09-14T16:47:13.274Z,2.87
2022-09-14T16:49:41.250Z,2.63
2022-09-14T16:52:09.269Z,2.40
2022-09-14T16:54:38.685Z,2.97
2022-09-14T16:57:06.775Z,2.77
2022-09-14T16:59:36.844Z,2.57
2022-09-14T17:02:07.552Z,2.90
2022-09-14T17:04:35.641Z,3.73
2022-09-14T17:07:03.614Z,2.53
2022-09-14T17:09:32.871Z,2.80
2022-09-14T17:12:02.247Z,4.10
2022-09-14T17:14:31.707Z,2.90
2022-09-14T17:17:00.536Z,2.47
2022-09-14T17:19:29.305Z,2.50
2022-09-14T17:21:57.399Z,2.70
2022-09-14T17:24:25.977Z,2.57
2022-09-14T17:26:54.071Z,2.57
2022-09-14T17:29:23.550Z,2.90
2022-09-14T17:31:51.670Z,2.70
2022-09-14T17:34:19.798Z,3.33
2022-09-14T17:36:47.809Z,3.20
2022-09-14T17:39:16.337Z,2.80
2022-09-14T17:41:44.630Z,3.00
2022-09-14T17:44:14.173Z,2.90
2022-09-14T17:46:52.163Z,3.23
2022-09-14T17:49:24.211Z,2.90
2022-09-14T17:51:52.755Z,3.10
2022-09-14T17:54:21.237Z,2.87
2022-09-14T17:56:49.419Z,3.10
2022-09-14T17:59:20.181Z,3.20
2022-09-14T18:01:50.168Z,3.10
2022-09-14T18:04:18.668Z,3.30
2022-09-14T18:06:47.890Z,3.40
2022-09-14T18:09:17.748Z,3.60
2022-09-14T18:11:46.345Z,3.17
2022-09-14T18:14:15.100Z,4.00
2022-09-14T18:16:44.095Z,3.47
2022-09-14T18:19:15.604Z,3.40
2022-09-14T18:21:45.863Z,4.10
2022-09-14T18:24:16.114Z,3.80
2022-09-14T18:26:46.207Z,3.87
2022-09-14T18:29:16.658Z,3.93
2022-09-14T18:31:45.442Z,4.23
2022-09-14T18:34:15.001Z,4.03
2022-09-14T18:36:43.097Z,4.70
2022-09-14T18:39:11.348Z,5.53
2022-09-14T18:41:39.405Z,4.90
2022-09-14T18:44:08.057Z,4.80
2022-09-14T18:46:36.297Z,4.60
2022-09-14T18:49:04.997Z,5.00
2022-09-14T18:51:34.354Z,4.47
2022-09-14T18:54:04.327Z,4.43
2022-09-14T18:56:34.445Z,3.53
2022-09-14T18:59:03.423Z,3.97
2022-09-14T19:01:31.674Z,3.17
2022-09-14T19:04:00.080Z,3.30
2022-09-14T19:06:28.058Z,3.17
2022-09-14T19:08:58.483Z,3.50
2022-09-14T19:11:28.749Z,2.80
2022-09-14T19:13:57.946Z,3.67
2022-09-14T19:16:26.478Z,3.50
2022-09-14T19:18:54.665Z,3.40
2022-09-14T19:21:24.809Z,3.17
2022-09-14T19:24:00.629Z,2.63
2022-09-14T19:26:30.541Z,2.80
2022-09-14T19:29:00.599Z,3.03
2022-09-14T19:31:30.509Z,2.90
2022-09-14T19:33:58.828Z,2.97
2022-09-14T19:36:28.405Z,3.13
2022-09-14T19:39:01.795Z,2.70
2022-09-14T19:41:31.397Z,2.57
2022-09-14T19:44:06.793Z,2.97
2022-09-14T19:46:36.214Z,2.70
2022-09-14T19:49:04.591Z,2.93
2022-09-14T19:51:32.595Z,2.83
2022-09-14T19:54:02.017Z,2.60
2022-09-14T19:56:32.141Z,2.60
2022-09-14T19:59:02.887Z,2.67
2022-09-14T20:01:32.307Z,2.80
2022-09-14T20:04:00.435Z,2.70
2022-09-14T20:06:31.693Z,2.80
2022-09-14T20:09:06.399Z,2.60
2022-09-14T20:11:37.162Z,2.70
2022-09-14T20:14:08.844Z,2.40
2022-09-14T20:16:39.132Z,2.50
2022-09-14T20:19:10.736Z,2.33
2022-09-14T20:21:43.771Z,2.63
2022-09-14T20:24:17.017Z,2.73
2022-09-14T20:26:46.430Z,2.67
2022-09-14T20:29:15.180Z,2.87
2022-09-14T20:31:43.390Z,3.20
2022-09-14T20:34:15.652Z,2.93
2022-09-14T20:36:44.511Z,3.23
2022-09-14T20:39:13.946Z,3.20
2022-09-14T20:41:42.505Z,2.87
2022-09-14T20:44:10.977Z,3.20
2022-09-14T20:46:40.799Z,3.30
2022-09-14T20:49:11.757Z,2.70
2022-09-14T20:51:40.601Z,3.13
2022-09-14T20:54:12.052Z,3.47
2022-09-14T20:56:42.077Z,3.43
2022-09-14T20:59:13.845Z,3.30
2022-09-14T21:01:43.717Z,3.20
2022-09-14T21:04:13.385Z,3.40
2022-09-14T21:06:45.277Z,2.83
2022-09-14T21:09:15.121Z,3.20
2022-09-14T21:11:46.148Z,3.37
2022-09-14T21:14:14.893Z,3.10
2022-09-14T21:16:44.299Z,3.33
2022-09-14T21:19:13.962Z,3.40
2022-09-14T21:21:42.934Z,3.53
2022-09-14T21:24:13.385Z,3.20
2022-09-14T21:26:46.189Z,3.17
2022-09-14T21:29:17.352Z,3.90
2022-09-14T21:31:45.765Z,3.23
2022-09-14T21:34:14.055Z,3.87
2022-09-14T21:36:45.062Z,4.30
2022-09-14T21:39:14.838Z,3.60
2022-09-14T21:41:45.730Z,3.40
2022-09-14T21:44:14.691Z,3.83
2022-09-14T21:46:42.930Z,4.53
2022-09-14T21:49:14.347Z,3.90
2022-09-14T21:51:42.807Z,3.43
2022-09-14T21:54:12.714Z,3.63
2022-09-14T21:56:42.717Z,3.33
2022-09-14T21:59:15.181Z,3.43
2022-09-14T22:01:43.748Z,3.57
2022-09-14T22:04:15.434Z,4.57
2022-09-14T22:06:45.157Z,3.20
2022-09-14T22:09:14.294Z,3.53
2022-09-14T22:11:42.281Z,4.10
2022-09-14T22:14:14.813Z,4.40
2022-09-14T22:16:43.310Z,3.60
2022-09-14T22:19:16.406Z,4.20
2022-09-14T22:21:44.797Z,4.27
2022-09-14T22:24:15.769Z,3.97
2022-09-14T22:26:44.712Z,4.00
2022-09-14T22:29:15.274Z,4.03
2022-09-14T22:31:44.718Z,4.10
2022-09-14T22:34:12.982Z,4.83
2022-09-14T22:36:41.420Z,4.47
2022-09-14T22:39:10.520Z,4.53
2022-09-14T22:41:39.375Z,4.63
2022-09-14T22:44:08.453Z,4.43
2022-09-14T22:46:38.077Z,4.60
2022-09-14T22:49:06.070Z,4.47
2022-09-14T22:51:34.597Z,5.03
2022-09-14T22:54:02.996Z,4.63
2022-09-14T22:56:33.062Z,4.30
2022-09-14T22:59:02.228Z,4.17
2022-09-14T23:01:35.934Z,3.97
2022-09-14T23:04:07.743Z,4.90
2022-09-14T23:06:37.541Z,4.70
2022-09-14T23:09:05.877Z,4.70
2022-09-14T23:11:33.965Z,4.67
2022-09-14T23:14:01.974Z,4.60
2022-09-14T23:16:31.678Z,4.13
2022-09-14T23:19:02.038Z,4.43
2022-09-14T23:21:32.353Z,4.30
2022-09-14T23:24:01.996Z,4.90
2022-09-14T23:26:30.453Z,5.20
2022-09-14T23:29:01.145Z,5.60
2022-09-14T23:31:31.153Z,5.10
2022-09-14T23:34:02.215Z,6.40
2022-09-14T23:36:32.124Z,5.30
2022-09-14T23:39:03.363Z,5.77
2022-09-14T23:41:31.735Z,5.67
2022-09-14T23:43:59.772Z,6.17
2022-09-14T23:46:28.317Z,6.20
2022-09-14T23:48:56.384Z,5.00
2022-09-14T23:51:25.553Z,5.07
2022-09-14T23:53:54.972Z,5.23
2022-09-14T23:56:23.006Z,5.30
2022-09-14T23:58:51.465Z,5.30
